sensor_id;sensor_type;location;lat;lon;timestamp;P1;durP1;ratioP1;P2;durP2;ratioP2
11986;SDS011;6053;51.382;6.768;2022-07-29T00:02:11;1.08;;;0.85;;
11986;SDS011;6053;51.382;6.768;2022-07-29T00:04:39;1.05;;;0.70;;
11986;SDS011;6053;51.382;6.768;2022-07-29T00:07:08;0.50;;;0.50;;
11986;SDS011;6053;51.382;6.768;2022-07-29T00:09:39;0.95;;;0.60;;
11986;SDS011;6053;51.382;6.768;2022-07-29T00:12:17;0.98;;;0.60;;
11986;SDS011;6053;51.382;6.768;2022-07-29T00:14:52;2.90;;;0.88;;
11986;SDS011;6053;51.382;6.768;2022-07-29T00:17:23;0.60;;;0.60;;
11986;SDS011;6053;51.382;6.768;2022-07-29T00:19:52;0.40;;;0.40;;
11986;SDS011;6053;51.382;6.768;2022-07-29T00:22:20;0.40;;;0.40;;
11986;SDS011;6053;51.382;6.768;2022-07-29T00:24:49;0.75;;;0.43;;
11986;SDS011;6053;51.382;6.768;2022-07-29T00:27:17;2.40;;;0.87;;
11986;SDS011;6053;51.382;6.768;2022-07-29T00:29:46;1.02;;;0.55;;
11986;SDS011;6053;51.382;6.768;2022-07-29T00:32:14;0.90;;;0.50;;
11986;SDS011;6053;51.382;6.768;2022-07-29T00:34:44;0.98;;;0.50;;
11986;SDS011;6053;51.382;6.768;2022-07-29T00:37:29;2.90;;;0.90;;
11986;SDS011;6053;51.382;6.768;2022-07-29T00:39:58;2.20;;;0.60;;
11986;SDS011;6053;51.382;6.768;2022-07-29T00:42:26;1.70;;;0.70;;
11986;SDS011;6053;51.382;6.768;2022-07-29T00:44:55;1.40;;;0.70;;
11986;SDS011;6053;51.382;6.768;2022-07-29T00:47:23;1.80;;;0.50;;
11986;SDS011;6053;51.382;6.768;2022-07-29T00:49:53;1.80;;;0.60;;
11986;SDS011;6053;51.382;6.768;2022-07-29T00:52:21;1.20;;;0.50;;
11986;SDS011;6053;51.382;6.768;2022-07-29T00:54:50;0.95;;;0.70;;
11986;SDS011;6053;51.382;6.768;2022-07-29T00:57:18;2.40;;;0.50;;
11986;SDS011;6053;51.382;6.768;2022-07-29T00:59:47;3.13;;;0.87;;
11986;SDS011;6053;51.382;6.768;2022-07-29T01:02:16;2.10;;;0.65;;
11986;SDS011;6053;51.382;6.768;2022-07-29T01:04:44;1.27;;;0.57;;
11986;SDS011;6053;51.382;6.768;2022-07-29T01:07:14;1.30;;;0.55;;
11986;SDS011;6053;51.382;6.768;2022-07-29T01:09:43;1.17;;;0.68;;
11986;SDS011;6053;51.382;6.768;2022-07-29T01:12:13;1.33;;;0.93;;
11986;SDS011;6053;51.382;6.768;2022-07-29T01:14:46;1.25;;;0.60;;
11986;SDS011;6053;51.382;6.768;2022-07-29T01:17:17;1.40;;;0.60;;
11986;SDS011;6053;51.382;6.768;2022-07-29T01:19:53;2.27;;;0.60;;
11986;SDS011;6053;51.382;6.768;2022-07-29T01:22:31;0.90;;;0.50;;
11986;SDS011;6053;51.382;6.768;2022-07-29T01:25:43;1.00;;;0.60;;
11986;SDS011;6053;51.382;6.768;2022-07-29T01:28:37;3.47;;;0.70;;
11986;SDS011;6053;51.382;6.768;2022-07-29T01:31:25;1.37;;;0.43;;
11986;SDS011;6053;51.382;6.768;2022-07-29T01:34:05;0.45;;;0.45;;
11986;SDS011;6053;51.382;6.768;2022-07-29T01:36:40;2.85;;;0.60;;
11986;SDS011;6053;51.382;6.768;2022-07-29T01:39:16;0.45;;;0.45;;
11986;SDS011;6053;51.382;6.768;2022-07-29T01:41:56;0.40;;;0.40;;
11986;SDS011;6053;51.382;6.768;2022-07-29T01:44:39;0.30;;;0.30;;
11986;SDS011;6053;51.382;6.768;2022-07-29T01:47:19;0.28;;;0.28;;
11986;SDS011;6053;51.382;6.768;2022-07-29T01:49:53;0.30;;;0.30;;
11986;SDS011;6053;51.382;6.768;2022-07-29T01:52:26;0.70;;;0.50;;
11986;SDS011;6053;51.382;6.768;2022-07-29T01:55:02;0.85;;;0.80;;
11986;SDS011;6053;51.382;6.768;2022-07-29T01:57:37;0.67;;;0.63;;
11986;SDS011;6053;51.382;6.768;2022-07-29T02:00:10;1.05;;;0.60;;
11986;SDS011;6053;51.382;6.768;2022-07-29T02:02:40;0.98;;;0.60;;
11986;SDS011;6053;51.382;6.768;2022-07-29T02:05:11;1.70;;;0.80;;
11986;SDS011;6053;51.382;6.768;2022-07-29T02:07:43;0.40;;;0.40;;
11986;SDS011;6053;51.382;6.768;2022-07-29T02:10:13;1.67;;;0.70;;
11986;SDS011;6053;51.382;6.768;2022-07-29T02:12:51;0.30;;;0.30;;
11986;SDS011;6053;51.382;6.768;2022-07-29T02:15:25;0.25;;;0.25;;
11986;SDS011;6053;51.382;6.768;2022-07-29T02:17:58;0.30;;;0.30;;
11986;SDS011;6053;51.382;6.768;2022-07-29T02:20:30;0.30;;;0.30;;
11986;SDS011;6053;51.382;6.768;2022-07-29T02:23:00;0.30;;;0.30;;
11986;SDS011;6053;51.382;6.768;2022-07-29T02:25:30;0.40;;;0.40;;
11986;SDS011;6053;51.382;6.768;2022-07-29T02:28:03;0.40;;;0.30;;
11986;SDS011;6053;51.382;6.768;2022-07-29T02:30:36;0.60;;;0.50;;
11986;SDS011;6053;51.382;6.768;2022-07-29T02:33:09;0.65;;;0.50;;
11986;SDS011;6053;51.382;6.768;2022-07-29T02:35:43;2.28;;;0.60;;
11986;SDS011;6053;51.382;6.768;2022-07-29T02:38:14;1.25;;;0.68;;
11986;SDS011;6053;51.382;6.768;2022-07-29T02:41:01;0.75;;;0.40;;
11986;SDS011;6053;51.382;6.768;2022-07-29T02:43:35;1.63;;;0.45;;
11986;SDS011;6053;51.382;6.768;2022-07-29T02:46:06;0.60;;;0.60;;
11986;SDS011;6053;51.382;6.768;2022-07-29T02:48:55;0.88;;;0.70;;
11986;SDS011;6053;51.382;6.768;2022-07-29T02:51:32;1.05;;;0.57;;
11986;SDS011;6053;51.382;6.768;2022-07-29T02:54:11;0.50;;;0.50;;
11986;SDS011;6053;51.382;6.768;2022-07-29T02:56:48;3.07;;;0.80;;
11986;SDS011;6053;51.382;6.768;2022-07-29T02:59:22;1.50;;;0.60;;
11986;SDS011;6053;51.382;6.768;2022-07-29T03:01:56;0.80;;;0.65;;
11986;SDS011;6053;51.382;6.768;2022-07-29T03:04:27;0.47;;;0.40;;
11986;SDS011;6053;51.382;6.768;2022-07-29T03:06:58;1.47;;;0.80;;
11986;SDS011;6053;51.382;6.768;2022-07-29T03:09:28;1.85;;;0.65;;
11986;SDS011;6053;51.382;6.768;2022-07-29T03:11:57;0.95;;;0.40;;
11986;SDS011;6053;51.382;6.768;2022-07-29T03:14:26;1.05;;;0.65;;
11986;SDS011;6053;51.382;6.768;2022-07-29T03:16:56;1.80;;;0.70;;
11986;SDS011;6053;51.382;6.768;2022-07-29T03:19:25;1.98;;;0.55;;
11986;SDS011;6053;51.382;6.768;2022-07-29T03:21:55;1.90;;;0.77;;
11986;SDS011;6053;51.382;6.768;2022-07-29T03:24:28;0.52;;;0.50;;
11986;SDS011;6053;51.382;6.768;2022-07-29T03:26:58;1.45;;;0.60;;
11986;SDS011;6053;51.382;6.768;2022-07-29T03:29:27;3.80;;;0.60;;
11986;SDS011;6053;51.382;6.768;2022-07-29T03:32:01;1.10;;;0.77;;
11986;SDS011;6053;51.382;6.768;2022-07-29T03:34:34;0.80;;;0.40;;
11986;SDS011;6053;51.382;6.768;2022-07-29T03:37:04;1.30;;;0.50;;
11986;SDS011;6053;51.382;6.768;2022-07-29T03:39:34;1.63;;;0.60;;
11986;SDS011;6053;51.382;6.768;2022-07-29T03:42:08;0.40;;;0.40;;
11986;SDS011;6053;51.382;6.768;2022-07-29T03:44:41;1.25;;;0.45;;
11986;SDS011;6053;51.382;6.768;2022-07-29T03:47:16;1.67;;;0.47;;
11986;SDS011;6053;51.382;6.768;2022-07-29T03:50:08;0.30;;;0.30;;
11986;SDS011;6053;51.382;6.768;2022-07-29T03:52:42;2.65;;;0.60;;
11986;SDS011;6053;51.382;6.768;2022-07-29T03:55:10;0.75;;;0.40;;
11986;SDS011;6053;51.382;6.768;2022-07-29T03:57:40;0.40;;;0.40;;
11986;SDS011;6053;51.382;6.768;2022-07-29T04:00:11;0.40;;;0.40;;
11986;SDS011;6053;51.382;6.768;2022-07-29T04:02:43;1.20;;;0.68;;
11986;SDS011;6053;51.382;6.768;2022-07-29T04:05:15;1.27;;;0.60;;
11986;SDS011;6053;51.382;6.768;2022-07-29T04:07:46;0.40;;;0.40;;
11986;SDS011;6053;51.382;6.768;2022-07-29T04:10:15;1.40;;;0.70;;
11986;SDS011;6053;51.382;6.768;2022-07-29T04:12:56;2.80;;;0.70;;
11986;SDS011;6053;51.382;6.768;2022-07-29T04:15:25;0.70;;;0.55;;
11986;SDS011;6053;51.382;6.768;2022-07-29T04:17:58;0.63;;;0.55;;
11986;SDS011;6053;51.382;6.768;2022-07-29T04:20:26;1.63;;;0.63;;
11986;SDS011;6053;51.382;6.768;2022-07-29T04:22:55;3.00;;;0.70;;
11986;SDS011;6053;51.382;6.768;2022-07-29T04:25:23;1.10;;;0.50;;
11986;SDS011;6053;51.382;6.768;2022-07-29T04:27:52;2.97;;;0.70;;
11986;SDS011;6053;51.382;6.768;2022-07-29T04:30:29;0.68;;;0.68;;
11986;SDS011;6053;51.382;6.768;2022-07-29T04:33:01;3.03;;;1.00;;
11986;SDS011;6053;51.382;6.768;2022-07-29T04:35:33;2.00;;;0.80;;
11986;SDS011;6053;51.382;6.768;2022-07-29T04:38:15;1.87;;;0.83;;
11986;SDS011;6053;51.382;6.768;2022-07-29T04:40:43;4.72;;;1.30;;
11986;SDS011;6053;51.382;6.768;2022-07-29T04:43:15;1.38;;;1.15;;
11986;SDS011;6053;51.382;6.768;2022-07-29T04:45:47;1.40;;;0.93;;
11986;SDS011;6053;51.382;6.768;2022-07-29T04:48:17;2.38;;;1.13;;
11986;SDS011;6053;51.382;6.768;2022-07-29T04:50:53;2.88;;;1.13;;
11986;SDS011;6053;51.382;6.768;2022-07-29T04:53:22;1.65;;;0.77;;
11986;SDS011;6053;51.382;6.768;2022-07-29T04:55:51;1.77;;;1.13;;
11986;SDS011;6053;51.382;6.768;2022-07-29T04:58:19;1.92;;;0.90;;
11986;SDS011;6053;51.382;6.768;2022-07-29T05:00:49;3.40;;;1.30;;
11986;SDS011;6053;51.382;6.768;2022-07-29T05:03:19;1.30;;;0.90;;
11986;SDS011;6053;51.382;6.768;2022-07-29T05:05:47;0.60;;;0.60;;
11986;SDS011;6053;51.382;6.768;2022-07-29T05:08:16;0.60;;;0.60;;
11986;SDS011;6053;51.382;6.768;2022-07-29T05:10:44;1.30;;;0.63;;
11986;SDS011;6053;51.382;6.768;2022-07-29T05:13:13;2.03;;;1.00;;
11986;SDS011;6053;51.382;6.768;2022-07-29T05:15:42;0.60;;;0.60;;
11986;SDS011;6053;51.382;6.768;2022-07-29T05:18:10;0.50;;;0.50;;
11986;SDS011;6053;51.382;6.768;2022-07-29T05:20:40;2.00;;;0.63;;
11986;SDS011;6053;51.382;6.768;2022-07-29T05:23:09;1.00;;;0.70;;
11986;SDS011;6053;51.382;6.768;2022-07-29T05:25:39;0.80;;;0.75;;
11986;SDS011;6053;51.382;6.768;2022-07-29T05:28:10;2.07;;;0.77;;
11986;SDS011;6053;51.382;6.768;2022-07-29T05:30:38;2.10;;;1.02;;
11986;SDS011;6053;51.382;6.768;2022-07-29T05:33:06;1.25;;;0.70;;
11986;SDS011;6053;51.382;6.768;2022-07-29T05:35:56;0.90;;;0.50;;
11986;SDS011;6053;51.382;6.768;2022-07-29T05:38:26;0.50;;;0.50;;
11986;SDS011;6053;51.382;6.768;2022-07-29T05:40:56;0.70;;;0.70;;
11986;SDS011;6053;51.382;6.768;2022-07-29T05:43:25;0.70;;;0.70;;
11986;SDS011;6053;51.382;6.768;2022-07-29T05:45:54;0.60;;;0.60;;
11986;SDS011;6053;51.382;6.768;2022-07-29T05:48:22;0.50;;;0.50;;
11986;SDS011;6053;51.382;6.768;2022-07-29T05:50:51;2.08;;;0.90;;
11986;SDS011;6053;51.382;6.768;2022-07-29T05:53:22;1.30;;;1.00;;
11986;SDS011;6053;51.382;6.768;2022-07-29T05:55:50;3.40;;;1.23;;
11986;SDS011;6053;51.382;6.768;2022-07-29T05:58:19;3.33;;;1.00;;
11986;SDS011;6053;51.382;6.768;2022-07-29T06:00:48;1.95;;;1.13;;
11986;SDS011;6053;51.382;6.768;2022-07-29T06:03:16;1.42;;;0.93;;
11986;SDS011;6053;51.382;6.768;2022-07-29T06:05:44;1.90;;;1.15;;
11986;SDS011;6053;51.382;6.768;2022-07-29T06:08:13;1.27;;;0.87;;
11986;SDS011;6053;51.382;6.768;2022-07-29T06:10:42;0.80;;;0.80;;
11986;SDS011;6053;51.382;6.768;2022-07-29T06:13:12;0.60;;;0.60;;
11986;SDS011;6053;51.382;6.768;2022-07-29T06:15:42;1.50;;;0.70;;
11986;SDS011;6053;51.382;6.768;2022-07-29T06:18:11;0.82;;;0.68;;
11986;SDS011;6053;51.382;6.768;2022-07-29T06:20:40;2.10;;;1.20;;
11986;SDS011;6053;51.382;6.768;2022-07-29T06:23:09;1.15;;;0.60;;
11986;SDS011;6053;51.382;6.768;2022-07-29T06:25:37;1.95;;;0.82;;
11986;SDS011;6053;51.382;6.768;2022-07-29T06:28:08;1.60;;;0.68;;
11986;SDS011;6053;51.382;6.768;2022-07-29T06:30:37;3.45;;;1.40;;
11986;SDS011;6053;51.382;6.768;2022-07-29T06:33:06;1.60;;;0.98;;
11986;SDS011;6053;51.382;6.768;2022-07-29T06:35:35;1.73;;;1.10;;
11986;SDS011;6053;51.382;6.768;2022-07-29T06:38:07;3.40;;;1.40;;
11986;SDS011;6053;51.382;6.768;2022-07-29T06:40:57;1.00;;;0.90;;
11986;SDS011;6053;51.382;6.768;2022-07-29T06:43:31;1.40;;;0.77;;
11986;SDS011;6053;51.382;6.768;2022-07-29T06:46:18;0.80;;;0.77;;
11986;SDS011;6053;51.382;6.768;2022-07-29T06:48:47;1.48;;;0.80;;
11986;SDS011;6053;51.382;6.768;2022-07-29T06:51:16;1.13;;;1.03;;
11986;SDS011;6053;51.382;6.768;2022-07-29T06:53:48;0.70;;;0.70;;
11986;SDS011;6053;51.382;6.768;2022-07-29T06:56:28;0.60;;;0.60;;
11986;SDS011;6053;51.382;6.768;2022-07-29T06:59:06;0.60;;;0.60;;
11986;SDS011;6053;51.382;6.768;2022-07-29T07:01:36;0.52;;;0.52;;
11986;SDS011;6053;51.382;6.768;2022-07-29T07:04:06;0.73;;;0.73;;
11986;SDS011;6053;51.382;6.768;2022-07-29T07:06:38;0.50;;;0.50;;
11986;SDS011;6053;51.382;6.768;2022-07-29T07:09:06;0.60;;;0.60;;
11986;SDS011;6053;51.382;6.768;2022-07-29T07:11:34;0.43;;;0.43;;
11986;SDS011;6053;51.382;6.768;2022-07-29T07:14:03;0.98;;;0.80;;
11986;SDS011;6053;51.382;6.768;2022-07-29T07:16:33;1.40;;;0.80;;
11986;SDS011;6053;51.382;6.768;2022-07-29T07:19:01;0.80;;;0.80;;
11986;SDS011;6053;51.382;6.768;2022-07-29T07:21:29;0.80;;;0.80;;
11986;SDS011;6053;51.382;6.768;2022-07-29T07:24:01;0.60;;;0.60;;
11986;SDS011;6053;51.382;6.768;2022-07-29T07:26:29;0.68;;;0.68;;
11986;SDS011;6053;51.382;6.768;2022-07-29T07:28:58;0.73;;;0.73;;
11986;SDS011;6053;51.382;6.768;2022-07-29T07:31:26;0.70;;;0.70;;
11986;SDS011;6053;51.382;6.768;2022-07-29T07:33:56;0.50;;;0.50;;
11986;SDS011;6053;51.382;6.768;2022-07-29T07:36:25;0.60;;;0.60;;
11986;SDS011;6053;51.382;6.768;2022-07-29T07:38:53;1.05;;;1.00;;
11986;SDS011;6053;51.382;6.768;2022-07-29T07:41:22;1.20;;;0.80;;
11986;SDS011;6053;51.382;6.768;2022-07-29T07:43:50;0.70;;;0.70;;
11986;SDS011;6053;51.382;6.768;2022-07-29T07:46:19;0.90;;;0.90;;
11986;SDS011;6053;51.382;6.768;2022-07-29T07:48:47;2.20;;;1.23;;
11986;SDS011;6053;51.382;6.768;2022-07-29T07:51:17;1.00;;;0.90;;
11986;SDS011;6053;51.382;6.768;2022-07-29T07:53:46;1.00;;;0.90;;
11986;SDS011;6053;51.382;6.768;2022-07-29T07:56:15;2.37;;;1.30;;
11986;SDS011;6053;51.382;6.768;2022-07-29T07:58:44;0.70;;;0.70;;
11986;SDS011;6053;51.382;6.768;2022-07-29T08:01:12;1.30;;;0.90;;
11986;SDS011;6053;51.382;6.768;2022-07-29T08:03:44;1.70;;;0.98;;
11986;SDS011;6053;51.382;6.768;2022-07-29T08:06:12;1.60;;;0.93;;
11986;SDS011;6053;51.382;6.768;2022-07-29T08:08:42;1.20;;;0.90;;
11986;SDS011;6053;51.382;6.768;2022-07-29T08:11:10;1.33;;;1.23;;
11986;SDS011;6053;51.382;6.768;2022-07-29T08:13:39;2.13;;;1.27;;
11986;SDS011;6053;51.382;6.768;2022-07-29T08:16:08;1.63;;;1.10;;
11986;SDS011;6053;51.382;6.768;2022-07-29T08:18:40;1.65;;;1.20;;
11986;SDS011;6053;51.382;6.768;2022-07-29T08:21:10;2.13;;;1.30;;
11986;SDS011;6053;51.382;6.768;2022-07-29T08:23:42;1.67;;;1.30;;
11986;SDS011;6053;51.382;6.768;2022-07-29T08:26:26;1.60;;;0.90;;
11986;SDS011;6053;51.382;6.768;2022-07-29T08:28:54;1.70;;;1.00;;
11986;SDS011;6053;51.382;6.768;2022-07-29T08:31:22;0.90;;;0.90;;
11986;SDS011;6053;51.382;6.768;2022-07-29T08:33:51;1.17;;;1.13;;
11986;SDS011;6053;51.382;6.768;2022-07-29T08:36:19;0.80;;;0.80;;
11986;SDS011;6053;51.382;6.768;2022-07-29T08:38:49;2.60;;;1.20;;
11986;SDS011;6053;51.382;6.768;2022-07-29T08:41:17;1.10;;;1.10;;
11986;SDS011;6053;51.382;6.768;2022-07-29T08:43:46;0.82;;;0.82;;
11986;SDS011;6053;51.382;6.768;2022-07-29T08:46:15;1.48;;;1.25;;
11986;SDS011;6053;51.382;6.768;2022-07-29T08:48:45;4.40;;;1.50;;
11986;SDS011;6053;51.382;6.768;2022-07-29T08:51:14;1.02;;;0.90;;
11986;SDS011;6053;51.382;6.768;2022-07-29T08:53:44;1.00;;;1.00;;
11986;SDS011;6053;51.382;6.768;2022-07-29T08:56:17;1.30;;;1.25;;
11986;SDS011;6053;51.382;6.768;2022-07-29T08:58:47;1.10;;;1.10;;
11986;SDS011;6053;51.382;6.768;2022-07-29T09:01:21;1.10;;;1.00;;
11986;SDS011;6053;51.382;6.768;2022-07-29T09:04:04;2.17;;;1.40;;
11986;SDS011;6053;51.382;6.768;2022-07-29T09:06:39;1.00;;;0.90;;
11986;SDS011;6053;51.382;6.768;2022-07-29T09:09:12;1.35;;;1.20;;
11986;SDS011;6053;51.382;6.768;2022-07-29T09:11:43;0.80;;;0.77;;
11986;SDS011;6053;51.382;6.768;2022-07-29T09:14:12;2.10;;;1.47;;
11986;SDS011;6053;51.382;6.768;2022-07-29T09:16:45;1.67;;;1.30;;
11986;SDS011;6053;51.382;6.768;2022-07-29T09:19:23;4.75;;;1.77;;
11986;SDS011;6053;51.382;6.768;2022-07-29T09:21:54;1.50;;;1.40;;
11986;SDS011;6053;51.382;6.768;2022-07-29T09:24:25;2.13;;;1.10;;
11986;SDS011;6053;51.382;6.768;2022-07-29T09:27:17;4.63;;;1.60;;
11986;SDS011;6053;51.382;6.768;2022-07-29T09:29:55;4.10;;;1.90;;
11986;SDS011;6053;51.382;6.768;2022-07-29T09:32:25;1.10;;;1.00;;
11986;SDS011;6053;51.382;6.768;2022-07-29T09:37:48;4.00;;;1.58;;
11986;SDS011;6053;51.382;6.768;2022-07-29T09:40:17;2.10;;;1.65;;
11986;SDS011;6053;51.382;6.768;2022-07-29T09:42:49;2.43;;;1.63;;
11986;SDS011;6053;51.382;6.768;2022-07-29T09:45:28;2.42;;;1.80;;
11986;SDS011;6053;51.382;6.768;2022-07-29T09:47:59;2.55;;;1.60;;
11986;SDS011;6053;51.382;6.768;2022-07-29T09:50:40;2.45;;;1.60;;
11986;SDS011;6053;51.382;6.768;2022-07-29T09:53:11;1.63;;;1.52;;
11986;SDS011;6053;51.382;6.768;2022-07-29T09:55:46;1.88;;;1.77;;
11986;SDS011;6053;51.382;6.768;2022-07-29T09:58:19;3.17;;;1.43;;
11986;SDS011;6053;51.382;6.768;2022-07-29T10:00:49;2.10;;;1.73;;
11986;SDS011;6053;51.382;6.768;2022-07-29T10:03:21;2.90;;;1.50;;
11986;SDS011;6053;51.382;6.768;2022-07-29T10:06:03;2.17;;;1.80;;
11986;SDS011;6053;51.382;6.768;2022-07-29T10:08:34;3.10;;;1.80;;
11986;SDS011;6053;51.382;6.768;2022-07-29T10:11:10;1.33;;;1.23;;
11986;SDS011;6053;51.382;6.768;2022-07-29T10:13:43;2.67;;;1.92;;
11986;SDS011;6053;51.382;6.768;2022-07-29T10:16:14;2.05;;;1.50;;
11986;SDS011;6053;51.382;6.768;2022-07-29T10:18:44;2.60;;;1.60;;
11986;SDS011;6053;51.382;6.768;2022-07-29T10:21:13;3.20;;;1.75;;
11986;SDS011;6053;51.382;6.768;2022-07-29T10:24:01;2.83;;;1.50;;
11986;SDS011;6053;51.382;6.768;2022-07-29T10:26:31;3.72;;;1.73;;
11986;SDS011;6053;51.382;6.768;2022-07-29T10:29:01;1.10;;;0.93;;
11986;SDS011;6053;51.382;6.768;2022-07-29T10:31:34;4.05;;;2.10;;
11986;SDS011;6053;51.382;6.768;2022-07-29T10:34:13;3.75;;;1.73;;
11986;SDS011;6053;51.382;6.768;2022-07-29T10:36:54;1.40;;;1.30;;
11986;SDS011;6053;51.382;6.768;2022-07-29T10:39:38;1.50;;;1.20;;
11986;SDS011;6053;51.382;6.768;2022-07-29T10:42:22;1.63;;;1.10;;
11986;SDS011;6053;51.382;6.768;2022-07-29T10:45:01;5.22;;;1.65;;
11986;SDS011;6053;51.382;6.768;2022-07-29T10:47:31;2.30;;;1.17;;
11986;SDS011;6053;51.382;6.768;2022-07-29T10:50:04;2.20;;;1.27;;
11986;SDS011;6053;51.382;6.768;2022-07-29T10:52:53;3.83;;;1.55;;
11986;SDS011;6053;51.382;6.768;2022-07-29T10:55:30;2.85;;;1.10;;
11986;SDS011;6053;51.382;6.768;2022-07-29T10:58:10;7.43;;;1.90;;
11986;SDS011;6053;51.382;6.768;2022-07-29T11:00:44;3.83;;;1.40;;
11986;SDS011;6053;51.382;6.768;2022-07-29T11:06:22;2.53;;;1.35;;
11986;SDS011;6053;51.382;6.768;2022-07-29T11:11:50;1.30;;;1.00;;
11986;SDS011;6053;51.382;6.768;2022-07-29T11:14:20;1.50;;;1.25;;
11986;SDS011;6053;51.382;6.768;2022-07-29T11:20:41;4.57;;;1.60;;
11986;SDS011;6053;51.382;6.768;2022-07-29T11:23:19;2.00;;;1.10;;
11986;SDS011;6053;51.382;6.768;2022-07-29T11:28:48;1.80;;;1.20;;
11986;SDS011;6053;51.382;6.768;2022-07-29T11:31:33;1.30;;;0.90;;
11986;SDS011;6053;51.382;6.768;2022-07-29T11:34:18;1.67;;;0.90;;
11986;SDS011;6053;51.382;6.768;2022-07-29T11:40:10;4.03;;;1.15;;
11986;SDS011;6053;51.382;6.768;2022-07-29T11:42:46;2.83;;;1.20;;
11986;SDS011;6053;51.382;6.768;2022-07-29T11:45:24;4.15;;;1.60;;
11986;SDS011;6053;51.382;6.768;2022-07-29T11:48:15;2.70;;;1.30;;
11986;SDS011;6053;51.382;6.768;2022-07-29T11:50:58;0.70;;;0.70;;
11986;SDS011;6053;51.382;6.768;2022-07-29T11:53:28;0.77;;;0.70;;
11986;SDS011;6053;51.382;6.768;2022-07-29T11:55:58;1.00;;;0.90;;
11986;SDS011;6053;51.382;6.768;2022-07-29T11:58:29;1.13;;;1.02;;
11986;SDS011;6053;51.382;6.768;2022-07-29T12:00:58;0.75;;;0.75;;
11986;SDS011;6053;51.382;6.768;2022-07-29T12:03:30;1.10;;;0.93;;
11986;SDS011;6053;51.382;6.768;2022-07-29T12:06:03;2.80;;;1.00;;
11986;SDS011;6053;51.382;6.768;2022-07-29T12:08:43;2.03;;;1.40;;
11986;SDS011;6053;51.382;6.768;2022-07-29T12:11:16;1.80;;;1.02;;
11986;SDS011;6053;51.382;6.768;2022-07-29T12:13:48;2.58;;;1.35;;
11986;SDS011;6053;51.382;6.768;2022-07-29T12:16:17;2.38;;;1.35;;
11986;SDS011;6053;51.382;6.768;2022-07-29T12:18:55;4.05;;;1.52;;
11986;SDS011;6053;51.382;6.768;2022-07-29T12:21:26;0.83;;;0.73;;
11986;SDS011;6053;51.382;6.768;2022-07-29T12:23:56;0.95;;;0.90;;
11986;SDS011;6053;51.382;6.768;2022-07-29T12:26:34;1.63;;;1.20;;
11986;SDS011;6053;51.382;6.768;2022-07-29T12:29:05;1.30;;;0.93;;
11986;SDS011;6053;51.382;6.768;2022-07-29T12:31:36;2.80;;;1.42;;
11986;SDS011;6053;51.382;6.768;2022-07-29T12:34:09;2.67;;;1.50;;
11986;SDS011;6053;51.382;6.768;2022-07-29T12:36:39;3.47;;;1.15;;
11986;SDS011;6053;51.382;6.768;2022-07-29T12:39:22;1.45;;;1.15;;
11986;SDS011;6053;51.382;6.768;2022-07-29T12:41:54;3.78;;;1.27;;
11986;SDS011;6053;51.382;6.768;2022-07-29T12:44:43;1.25;;;0.80;;
11986;SDS011;6053;51.382;6.768;2022-07-29T12:47:13;2.20;;;1.13;;
11986;SDS011;6053;51.382;6.768;2022-07-29T12:49:41;1.25;;;0.57;;
11986;SDS011;6053;51.382;6.768;2022-07-29T12:52:28;0.98;;;0.80;;
11986;SDS011;6053;51.382;6.768;2022-07-29T12:54:58;2.78;;;0.93;;
11986;SDS011;6053;51.382;6.768;2022-07-29T12:57:27;1.20;;;0.75;;
11986;SDS011;6053;51.382;6.768;2022-07-29T13:02:42;4.30;;;1.10;;
11986;SDS011;6053;51.382;6.768;2022-07-29T13:05:11;1.48;;;0.90;;
11986;SDS011;6053;51.382;6.768;2022-07-29T13:07:41;2.17;;;1.00;;
11986;SDS011;6053;51.382;6.768;2022-07-29T13:10:22;1.45;;;1.20;;
11986;SDS011;6053;51.382;6.768;2022-07-29T13:13:04;1.60;;;1.07;;
11986;SDS011;6053;51.382;6.768;2022-07-29T13:15:36;2.83;;;1.50;;
11986;SDS011;6053;51.382;6.768;2022-07-29T13:20:56;1.87;;;1.10;;
11986;SDS011;6053;51.382;6.768;2022-07-29T13:23:39;3.53;;;1.10;;
11986;SDS011;6053;51.382;6.768;2022-07-29T13:26:08;1.63;;;0.90;;
11986;SDS011;6053;51.382;6.768;2022-07-29T13:28:38;2.78;;;1.05;;
11986;SDS011;6053;51.382;6.768;2022-07-29T13:31:09;1.77;;;0.90;;
11986;SDS011;6053;51.382;6.768;2022-07-29T13:33:38;0.60;;;0.60;;
11986;SDS011;6053;51.382;6.768;2022-07-29T13:36:06;1.90;;;0.80;;
11986;SDS011;6053;51.382;6.768;2022-07-29T13:38:35;7.00;;;1.33;;
11986;SDS011;6053;51.382;6.768;2022-07-29T13:41:05;2.90;;;0.90;;
11986;SDS011;6053;51.382;6.768;2022-07-29T13:43:33;3.33;;;1.33;;
11986;SDS011;6053;51.382;6.768;2022-07-29T13:46:02;2.80;;;1.40;;
11986;SDS011;6053;51.382;6.768;2022-07-29T13:48:30;0.70;;;0.70;;
11986;SDS011;6053;51.382;6.768;2022-07-29T13:50:59;2.30;;;1.10;;
11986;SDS011;6053;51.382;6.768;2022-07-29T13:53:28;3.83;;;1.20;;
11986;SDS011;6053;51.382;6.768;2022-07-29T13:55:57;1.00;;;1.00;;
11986;SDS011;6053;51.382;6.768;2022-07-29T13:58:26;4.15;;;1.40;;
11986;SDS011;6053;51.382;6.768;2022-07-29T14:00:55;2.47;;;1.20;;
11986;SDS011;6053;51.382;6.768;2022-07-29T14:03:24;3.60;;;1.10;;
11986;SDS011;6053;51.382;6.768;2022-07-29T14:05:52;1.15;;;1.02;;
11986;SDS011;6053;51.382;6.768;2022-07-29T14:08:22;4.75;;;1.45;;
11986;SDS011;6053;51.382;6.768;2022-07-29T14:10:50;1.52;;;1.10;;
11986;SDS011;6053;51.382;6.768;2022-07-29T14:13:19;1.52;;;0.85;;
11986;SDS011;6053;51.382;6.768;2022-07-29T14:15:52;1.23;;;0.98;;
11986;SDS011;6053;51.382;6.768;2022-07-29T14:18:20;3.20;;;1.27;;
11986;SDS011;6053;51.382;6.768;2022-07-29T14:20:48;1.55;;;1.00;;
11986;SDS011;6053;51.382;6.768;2022-07-29T14:23:17;3.10;;;1.30;;
11986;SDS011;6053;51.382;6.768;2022-07-29T14:25:45;2.25;;;0.77;;
11986;SDS011;6053;51.382;6.768;2022-07-29T14:28:14;2.00;;;1.02;;
11986;SDS011;6053;51.382;6.768;2022-07-29T14:30:43;1.25;;;1.08;;
11986;SDS011;6053;51.382;6.768;2022-07-29T14:33:13;2.30;;;1.10;;
11986;SDS011;6053;51.382;6.768;2022-07-29T14:35:41;3.88;;;1.38;;
11986;SDS011;6053;51.382;6.768;2022-07-29T14:38:10;1.38;;;1.15;;
11986;SDS011;6053;51.382;6.768;2022-07-29T14:40:38;1.60;;;1.00;;
11986;SDS011;6053;51.382;6.768;2022-07-29T14:43:06;3.30;;;1.55;;
11986;SDS011;6053;51.382;6.768;2022-07-29T14:45:35;1.67;;;1.00;;
11986;SDS011;6053;51.382;6.768;2022-07-29T14:48:03;2.03;;;1.00;;
11986;SDS011;6053;51.382;6.768;2022-07-29T14:50:34;2.30;;;1.40;;
11986;SDS011;6053;51.382;6.768;2022-07-29T14:53:02;3.03;;;1.40;;
11986;SDS011;6053;51.382;6.768;2022-07-29T14:55:31;3.28;;;1.23;;
11986;SDS011;6053;51.382;6.768;2022-07-29T14:57:59;2.55;;;1.35;;
11986;SDS011;6053;51.382;6.768;2022-07-29T15:00:37;1.00;;;0.80;;
11986;SDS011;6053;51.382;6.768;2022-07-29T15:03:05;2.23;;;0.83;;
11986;SDS011;6053;51.382;6.768;2022-07-29T15:05:38;1.20;;;0.80;;
11986;SDS011;6053;51.382;6.768;2022-07-29T15:08:06;3.00;;;1.10;;
11986;SDS011;6053;51.382;6.768;2022-07-29T15:10:35;2.08;;;1.10;;
11986;SDS011;6053;51.382;6.768;2022-07-29T15:13:04;3.13;;;0.82;;
11986;SDS011;6053;51.382;6.768;2022-07-29T15:15:32;2.20;;;0.82;;
11986;SDS011;6053;51.382;6.768;2022-07-29T15:18:00;3.35;;;1.40;;
11986;SDS011;6053;51.382;6.768;2022-07-29T15:20:29;2.00;;;1.00;;
11986;SDS011;6053;51.382;6.768;2022-07-29T15:22:59;2.83;;;1.30;;
11986;SDS011;6053;51.382;6.768;2022-07-29T15:25:27;3.28;;;1.33;;
11986;SDS011;6053;51.382;6.768;2022-07-29T15:27:55;4.15;;;1.42;;
11986;SDS011;6053;51.382;6.768;2022-07-29T15:30:27;4.10;;;1.40;;
11986;SDS011;6053;51.382;6.768;2022-07-29T15:32:59;2.95;;;1.48;;
11986;SDS011;6053;51.382;6.768;2022-07-29T15:35:29;3.90;;;1.25;;
11986;SDS011;6053;51.382;6.768;2022-07-29T15:38:06;6.10;;;1.15;;
11986;SDS011;6053;51.382;6.768;2022-07-29T15:40:36;2.78;;;1.30;;
11986;SDS011;6053;51.382;6.768;2022-07-29T15:43:06;2.10;;;1.10;;
11986;SDS011;6053;51.382;6.768;2022-07-29T15:45:35;5.40;;;1.30;;
11986;SDS011;6053;51.382;6.768;2022-07-29T15:48:06;3.13;;;0.90;;
11986;SDS011;6053;51.382;6.768;2022-07-29T15:50:40;3.15;;;1.20;;
11986;SDS011;6053;51.382;6.768;2022-07-29T15:53:13;4.32;;;1.27;;
11986;SDS011;6053;51.382;6.768;2022-07-29T15:55:42;1.70;;;1.00;;